sensor_id;sensor_type;location;lat;lon;timestamp;P1;durP1;ratioP1;P2;durP2;ratioP2
43994;SDS011;51687;52.160;5.298;2022-10-16T00:01:33;4.78;;;1.40;;
43994;SDS011;51687;52.160;5.298;2022-10-16T00:04:01;6.93;;;1.90;;
43994;SDS011;51687;52.160;5.298;2022-10-16T00:06:28;8.65;;;1.88;;
43994;SDS011;51687;52.160;5.298;2022-10-16T00:08:56;7.95;;;2.22;;
43994;SDS011;51687;52.160;5.298;2022-10-16T00:11:27;7.25;;;2.03;;
43994;SDS011;51687;52.160;5.298;2022-10-16T00:14:04;5.85;;;1.52;;
43994;SDS011;51687;52.160;5.298;2022-10-16T00:16:33;3.17;;;1.50;;
43994;SDS011;51687;52.160;5.298;2022-10-16T00:19:00;6.13;;;1.83;;
43994;SDS011;51687;52.160;5.298;2022-10-16T00:21:28;5.10;;;1.70;;
43994;SDS011;51687;52.160;5.298;2022-10-16T00:23:57;3.45;;;1.40;;
43994;SDS011;51687;52.160;5.298;2022-10-16T00:26:26;7.15;;;1.60;;
43994;SDS011;51687;52.160;5.298;2022-10-16T00:28:54;2.75;;;1.55;;
43994;SDS011;51687;52.160;5.298;2022-10-16T00:31:22;3.70;;;1.33;;
43994;SDS011;51687;52.160;5.298;2022-10-16T00:33:49;7.97;;;1.50;;
43994;SDS011;51687;52.160;5.298;2022-10-16T00:36:21;6.57;;;2.17;;
43994;SDS011;51687;52.160;5.298;2022-10-16T00:38:52;5.53;;;1.90;;
43994;SDS011;51687;52.160;5.298;2022-10-16T00:41:21;3.20;;;1.70;;
43994;SDS011;51687;52.160;5.298;2022-10-16T00:43:51;10.70;;;2.70;;
43994;SDS011;51687;52.160;5.298;2022-10-16T00:46:25;3.58;;;1.77;;
43994;SDS011;51687;52.160;5.298;2022-10-16T00:51:32;4.63;;;2.05;;
43994;SDS011;51687;52.160;5.298;2022-10-16T00:54:06;6.32;;;1.98;;
43994;SDS011;51687;52.160;5.298;2022-10-16T00:56:37;4.07;;;1.70;;
43994;SDS011;51687;52.160;5.298;2022-10-16T00:59:05;4.15;;;1.75;;
43994;SDS011;51687;52.160;5.298;2022-10-16T01:01:37;5.00;;;2.13;;
43994;SDS011;51687;52.160;5.298;2022-10-16T01:04:04;6.55;;;2.55;;
43994;SDS011;51687;52.160;5.298;2022-10-16T01:09:09;4.35;;;2.22;;
43994;SDS011;51687;52.160;5.298;2022-10-16T01:15:06;3.10;;;1.73;;
43994;SDS011;51687;52.160;5.298;2022-10-16T01:22:40;3.92;;;2.15;;
43994;SDS011;51687;52.160;5.298;2022-10-16T01:28:00;4.07;;;2.35;;
43994;SDS011;51687;52.160;5.298;2022-10-16T01:30:31;2.97;;;2.30;;
43994;SDS011;51687;52.160;5.298;2022-10-16T01:33:03;5.50;;;2.97;;
43994;SDS011;51687;52.160;5.298;2022-10-16T01:35:47;4.75;;;2.28;;
43994;SDS011;51687;52.160;5.298;2022-10-16T01:38:33;3.55;;;2.22;;
43994;SDS011;51687;52.160;5.298;2022-10-16T01:41:13;3.63;;;2.25;;
43994;SDS011;51687;52.160;5.298;2022-10-16T01:43:46;4.97;;;2.35;;
43994;SDS011;51687;52.160;5.298;2022-10-16T01:46:18;3.85;;;1.90;;
43994;SDS011;51687;52.160;5.298;2022-10-16T01:48:46;4.35;;;2.58;;
43994;SDS011;51687;52.160;5.298;2022-10-16T01:51:15;6.22;;;2.50;;
43994;SDS011;51687;52.160;5.298;2022-10-16T01:53:45;5.97;;;2.55;;
43994;SDS011;51687;52.160;5.298;2022-10-16T01:56:19;3.17;;;2.08;;
43994;SDS011;51687;52.160;5.298;2022-10-16T01:58:55;5.78;;;2.17;;
43994;SDS011;51687;52.160;5.298;2022-10-16T02:01:30;5.57;;;2.50;;
43994;SDS011;51687;52.160;5.298;2022-10-16T02:03:59;5.15;;;2.40;;
43994;SDS011;51687;52.160;5.298;2022-10-16T02:06:33;3.95;;;2.03;;
43994;SDS011;51687;52.160;5.298;2022-10-16T02:09:00;5.03;;;2.25;;
43994;SDS011;51687;52.160;5.298;2022-10-16T02:11:27;5.07;;;2.92;;
43994;SDS011;51687;52.160;5.298;2022-10-16T02:13:55;6.70;;;2.72;;
43994;SDS011;51687;52.160;5.298;2022-10-16T02:16:34;4.03;;;2.22;;
43994;SDS011;51687;52.160;5.298;2022-10-16T02:19:03;3.67;;;2.72;;
43994;SDS011;51687;52.160;5.298;2022-10-16T02:21:38;5.47;;;2.60;;
43994;SDS011;51687;52.160;5.298;2022-10-16T02:29:40;3.95;;;2.78;;
43994;SDS011;51687;52.160;5.298;2022-10-16T02:32:14;5.35;;;2.45;;
43994;SDS011;51687;52.160;5.298;2022-10-16T02:34:44;4.82;;;2.55;;
43994;SDS011;51687;52.160;5.298;2022-10-16T02:37:13;5.93;;;2.60;;
43994;SDS011;51687;52.160;5.298;2022-10-16T02:39:40;2.72;;;2.30;;
43994;SDS011;51687;52.160;5.298;2022-10-16T02:42:14;4.40;;;2.65;;
43994;SDS011;51687;52.160;5.298;2022-10-16T02:44:43;8.85;;;2.85;;
43994;SDS011;51687;52.160;5.298;2022-10-16T02:47:10;4.88;;;2.55;;
43994;SDS011;51687;52.160;5.298;2022-10-16T02:49:37;4.38;;;2.53;;
43994;SDS011;51687;52.160;5.298;2022-10-16T02:52:04;4.40;;;2.40;;
43994;SDS011;51687;52.160;5.298;2022-10-16T02:54:30;3.72;;;2.45;;
43994;SDS011;51687;52.160;5.298;2022-10-16T02:56:57;4.50;;;2.67;;
43994;SDS011;51687;52.160;5.298;2022-10-16T02:59:24;4.80;;;2.40;;
43994;SDS011;51687;52.160;5.298;2022-10-16T03:01:50;6.05;;;2.53;;
43994;SDS011;51687;52.160;5.298;2022-10-16T03:04:17;4.85;;;2.22;;
43994;SDS011;51687;52.160;5.298;2022-10-16T03:06:44;4.20;;;2.60;;
43994;SDS011;51687;52.160;5.298;2022-10-16T03:09:10;3.15;;;2.10;;
43994;SDS011;51687;52.160;5.298;2022-10-16T03:11:37;4.40;;;2.50;;
43994;SDS011;51687;52.160;5.298;2022-10-16T03:14:04;6.80;;;2.40;;
43994;SDS011;51687;52.160;5.298;2022-10-16T03:16:31;3.20;;;2.17;;
43994;SDS011;51687;52.160;5.298;2022-10-16T03:18:58;3.95;;;1.98;;
43994;SDS011;51687;52.160;5.298;2022-10-16T03:21:24;6.18;;;2.53;;
43994;SDS011;51687;52.160;5.298;2022-10-16T03:23:51;5.53;;;2.45;;
43994;SDS011;51687;52.160;5.298;2022-10-16T03:26:18;4.60;;;2.38;;
43994;SDS011;51687;52.160;5.298;2022-10-16T03:28:45;3.20;;;1.90;;
43994;SDS011;51687;52.160;5.298;2022-10-16T03:31:12;3.92;;;1.60;;
43994;SDS011;51687;52.160;5.298;2022-10-16T03:33:39;2.93;;;2.03;;
43994;SDS011;51687;52.160;5.298;2022-10-16T03:36:06;2.70;;;1.90;;
43994;SDS011;51687;52.160;5.298;2022-10-16T03:38:32;4.05;;;1.90;;
43994;SDS011;51687;52.160;5.298;2022-10-16T03:40:59;4.28;;;2.20;;
43994;SDS011;51687;52.160;5.298;2022-10-16T03:43:26;3.15;;;1.83;;
43994;SDS011;51687;52.160;5.298;2022-10-16T03:45:53;2.85;;;2.15;;
43994;SDS011;51687;52.160;5.298;2022-10-16T03:48:20;3.88;;;1.88;;
43994;SDS011;51687;52.160;5.298;2022-10-16T03:50:46;4.75;;;2.22;;
43994;SDS011;51687;52.160;5.298;2022-10-16T03:53:14;4.80;;;2.03;;
43994;SDS011;51687;52.160;5.298;2022-10-16T03:55:41;3.08;;;1.80;;
43994;SDS011;51687;52.160;5.298;2022-10-16T03:58:08;2.28;;;1.65;;
43994;SDS011;51687;52.160;5.298;2022-10-16T04:00:35;3.90;;;2.08;;
43994;SDS011;51687;52.160;5.298;2022-10-16T04:03:05;3.33;;;2.00;;
43994;SDS011;51687;52.160;5.298;2022-10-16T04:05:32;4.22;;;1.67;;
43994;SDS011;51687;52.160;5.298;2022-10-16T04:07:59;3.88;;;1.83;;
43994;SDS011;51687;52.160;5.298;2022-10-16T04:10:26;4.43;;;1.73;;
43994;SDS011;51687;52.160;5.298;2022-10-16T04:12:52;3.55;;;1.80;;
43994;SDS011;51687;52.160;5.298;2022-10-16T04:15:23;5.50;;;1.63;;
43994;SDS011;51687;52.160;5.298;2022-10-16T04:17:50;3.13;;;1.60;;
43994;SDS011;51687;52.160;5.298;2022-10-16T04:20:17;3.45;;;1.67;;
43994;SDS011;51687;52.160;5.298;2022-10-16T04:22:44;3.80;;;1.70;;
43994;SDS011;51687;52.160;5.298;2022-10-16T04:25:11;3.67;;;1.60;;
43994;SDS011;51687;52.160;5.298;2022-10-16T04:27:38;5.32;;;1.85;;
43994;SDS011;51687;52.160;5.298;2022-10-16T04:30:10;2.70;;;1.50;;
43994;SDS011;51687;52.160;5.298;2022-10-16T04:32:37;4.05;;;2.03;;
43994;SDS011;51687;52.160;5.298;2022-10-16T04:35:04;3.40;;;1.67;;
43994;SDS011;51687;52.160;5.298;2022-10-16T04:37:31;3.60;;;1.58;;
43994;SDS011;51687;52.160;5.298;2022-10-16T04:39:57;4.57;;;1.45;;
43994;SDS011;51687;52.160;5.298;2022-10-16T04:42:24;3.08;;;1.67;;
43994;SDS011;51687;52.160;5.298;2022-10-16T04:44:51;5.40;;;1.70;;
43994;SDS011;51687;52.160;5.298;2022-10-16T04:47:18;3.40;;;1.48;;
43994;SDS011;51687;52.160;5.298;2022-10-16T04:49:44;2.28;;;1.50;;
43994;SDS011;51687;52.160;5.298;2022-10-16T04:52:11;1.85;;;1.35;;
43994;SDS011;51687;52.160;5.298;2022-10-16T04:54:38;4.13;;;1.73;;
43994;SDS011;51687;52.160;5.298;2022-10-16T04:57:04;3.75;;;1.30;;
43994;SDS011;51687;52.160;5.298;2022-10-16T04:59:31;3.97;;;1.75;;
43994;SDS011;51687;52.160;5.298;2022-10-16T05:01:58;4.68;;;1.58;;
43994;SDS011;51687;52.160;5.298;2022-10-16T05:04:25;2.45;;;1.50;;
43994;SDS011;51687;52.160;5.298;2022-10-16T05:06:51;2.38;;;1.70;;
43994;SDS011;51687;52.160;5.298;2022-10-16T05:09:18;3.25;;;1.80;;
43994;SDS011;51687;52.160;5.298;2022-10-16T05:11:45;3.92;;;1.70;;
43994;SDS011;51687;52.160;5.298;2022-10-16T05:14:11;3.47;;;1.83;;
43994;SDS011;51687;52.160;5.298;2022-10-16T05:16:38;3.05;;;1.50;;
43994;SDS011;51687;52.160;5.298;2022-10-16T05:19:05;3.00;;;1.70;;
43994;SDS011;51687;52.160;5.298;2022-10-16T05:21:52;4.25;;;1.55;;
43994;SDS011;51687;52.160;5.298;2022-10-16T05:24:19;3.58;;;1.60;;
43994;SDS011;51687;52.160;5.298;2022-10-16T05:26:46;5.45;;;1.60;;
43994;SDS011;51687;52.160;5.298;2022-10-16T05:29:12;2.03;;;1.30;;
43994;SDS011;51687;52.160;5.298;2022-10-16T05:31:39;3.97;;;1.48;;
43994;SDS011;51687;52.160;5.298;2022-10-16T05:34:06;3.28;;;1.45;;
43994;SDS011;51687;52.160;5.298;2022-10-16T05:36:32;4.97;;;1.75;;
43994;SDS011;51687;52.160;5.298;2022-10-16T05:38:59;2.80;;;1.25;;
43994;SDS011;51687;52.160;5.298;2022-10-16T05:41:26;3.17;;;1.63;;
43994;SDS011;51687;52.160;5.298;2022-10-16T05:43:53;5.15;;;1.83;;
43994;SDS011;51687;52.160;5.298;2022-10-16T05:46:20;2.30;;;1.60;;
43994;SDS011;51687;52.160;5.298;2022-10-16T05:48:46;4.20;;;1.48;;
43994;SDS011;51687;52.160;5.298;2022-10-16T05:51:14;4.47;;;1.90;;
43994;SDS011;51687;52.160;5.298;2022-10-16T05:53:41;3.13;;;1.93;;
43994;SDS011;51687;52.160;5.298;2022-10-16T05:56:09;3.37;;;2.10;;
43994;SDS011;51687;52.160;5.298;2022-10-16T05:58:38;4.22;;;1.98;;
43994;SDS011;51687;52.160;5.298;2022-10-16T06:01:07;3.03;;;1.73;;
43994;SDS011;51687;52.160;5.298;2022-10-16T06:03:40;5.57;;;1.80;;
43994;SDS011;51687;52.160;5.298;2022-10-16T06:06:11;2.63;;;1.55;;
43994;SDS011;51687;52.160;5.298;2022-10-16T06:08:42;3.13;;;1.98;;
43994;SDS011;51687;52.160;5.298;2022-10-16T06:11:12;2.95;;;1.67;;
43994;SDS011;51687;52.160;5.298;2022-10-16T06:13:51;3.53;;;2.05;;
43994;SDS011;51687;52.160;5.298;2022-10-16T06:16:20;4.47;;;2.00;;
43994;SDS011;51687;52.160;5.298;2022-10-16T06:18:46;3.07;;;1.80;;
43994;SDS011;51687;52.160;5.298;2022-10-16T06:21:14;3.88;;;2.05;;
43994;SDS011;51687;52.160;5.298;2022-10-16T06:23:43;3.45;;;2.00;;
43994;SDS011;51687;52.160;5.298;2022-10-16T06:26:18;4.93;;;2.20;;
43994;SDS011;51687;52.160;5.298;2022-10-16T06:28:48;3.70;;;2.05;;
43994;SDS011;51687;52.160;5.298;2022-10-16T06:31:16;6.28;;;2.03;;
43994;SDS011;51687;52.160;5.298;2022-10-16T06:33:43;2.78;;;2.25;;
43994;SDS011;51687;52.160;5.298;2022-10-16T06:36:12;5.18;;;2.05;;
43994;SDS011;51687;52.160;5.298;2022-10-16T06:38:40;3.90;;;2.10;;
43994;SDS011;51687;52.160;5.298;2022-10-16T06:41:08;5.45;;;2.10;;
43994;SDS011;51687;52.160;5.298;2022-10-16T06:43:37;5.13;;;2.30;;
43994;SDS011;51687;52.160;5.298;2022-10-16T06:46:05;4.55;;;2.92;;
43994;SDS011;51687;52.160;5.298;2022-10-16T06:48:36;3.28;;;2.25;;
43994;SDS011;51687;52.160;5.298;2022-10-16T06:51:04;6.78;;;2.65;;
43994;SDS011;51687;52.160;5.298;2022-10-16T06:53:33;2.75;;;1.88;;
43994;SDS011;51687;52.160;5.298;2022-10-16T06:56:24;8.43;;;2.37;;
43994;SDS011;51687;52.160;5.298;2022-10-16T06:58:52;5.72;;;2.33;;
43994;SDS011;51687;52.160;5.298;2022-10-16T07:01:20;5.85;;;2.42;;
43994;SDS011;51687;52.160;5.298;2022-10-16T07:03:49;2.97;;;2.10;;
43994;SDS011;51687;52.160;5.298;2022-10-16T07:06:17;3.25;;;2.20;;
43994;SDS011;51687;52.160;5.298;2022-10-16T07:08:45;3.42;;;1.77;;
43994;SDS011;51687;52.160;5.298;2022-10-16T07:11:14;4.45;;;1.83;;
43994;SDS011;51687;52.160;5.298;2022-10-16T07:13:43;3.67;;;2.25;;
43994;SDS011;51687;52.160;5.298;2022-10-16T07:16:24;4.65;;;2.03;;
43994;SDS011;51687;52.160;5.298;2022-10-16T07:18:55;5.63;;;1.70;;
43994;SDS011;51687;52.160;5.298;2022-10-16T07:21:27;4.18;;;1.70;;
43994;SDS011;51687;52.160;5.298;2022-10-16T07:23:57;3.45;;;1.77;;
43994;SDS011;51687;52.160;5.298;2022-10-16T07:26:26;1.95;;;1.67;;
43994;SDS011;51687;52.160;5.298;2022-10-16T07:28:56;3.83;;;1.70;;
43994;SDS011;51687;52.160;5.298;2022-10-16T07:31:23;4.10;;;1.75;;
43994;SDS011;51687;52.160;5.298;2022-10-16T07:33:50;3.88;;;1.80;;
43994;SDS011;51687;52.160;5.298;2022-10-16T07:36:18;7.05;;;1.80;;
43994;SDS011;51687;52.160;5.298;2022-10-16T07:38:46;4.30;;;1.75;;
43994;SDS011;51687;52.160;5.298;2022-10-16T07:41:14;3.53;;;1.50;;
43994;SDS011;51687;52.160;5.298;2022-10-16T07:43:46;4.28;;;1.63;;
43994;SDS011;51687;52.160;5.298;2022-10-16T07:46:14;3.65;;;1.50;;
43994;SDS011;51687;52.160;5.298;2022-10-16T07:48:42;8.23;;;1.42;;
43994;SDS011;51687;52.160;5.298;2022-10-16T07:51:13;2.15;;;1.30;;
43994;SDS011;51687;52.160;5.298;2022-10-16T07:53:41;6.78;;;1.38;;
43994;SDS011;51687;52.160;5.298;2022-10-16T07:56:08;3.50;;;1.27;;
43994;SDS011;51687;52.160;5.298;2022-10-16T07:58:36;5.63;;;1.40;;
43994;SDS011;51687;52.160;5.298;2022-10-16T08:01:06;3.67;;;1.50;;
43994;SDS011;51687;52.160;5.298;2022-10-16T08:03:35;5.75;;;1.67;;
43994;SDS011;51687;52.160;5.298;2022-10-16T08:06:03;6.30;;;1.80;;
43994;SDS011;51687;52.160;5.298;2022-10-16T08:08:31;6.10;;;1.98;;
43994;SDS011;51687;52.160;5.298;2022-10-16T08:10:57;3.60;;;1.80;;
43994;SDS011;51687;52.160;5.298;2022-10-16T08:13:25;6.97;;;2.00;;
43994;SDS011;51687;52.160;5.298;2022-10-16T08:15:53;7.03;;;2.60;;
43994;SDS011;51687;52.160;5.298;2022-10-16T08:18:21;2.97;;;2.08;;
43994;SDS011;51687;52.160;5.298;2022-10-16T08:20:54;6.90;;;1.80;;
43994;SDS011;51687;52.160;5.298;2022-10-16T08:23:22;6.28;;;2.88;;
43994;SDS011;51687;52.160;5.298;2022-10-16T08:25:49;3.42;;;2.00;;
43994;SDS011;51687;52.160;5.298;2022-10-16T08:28:15;6.85;;;2.47;;
43994;SDS011;51687;52.160;5.298;2022-10-16T08:30:42;11.68;;;2.53;;
43994;SDS011;51687;52.160;5.298;2022-10-16T08:33:09;3.80;;;1.65;;
43994;SDS011;51687;52.160;5.298;2022-10-16T08:35:36;2.80;;;1.80;;
43994;SDS011;51687;52.160;5.298;2022-10-16T08:38:03;5.20;;;2.08;;
43994;SDS011;51687;52.160;5.298;2022-10-16T08:40:31;4.75;;;1.63;;
43994;SDS011;51687;52.160;5.298;2022-10-16T08:51:07;4.50;;;1.70;;
43994;SDS011;51687;52.160;5.298;2022-10-16T08:53:43;4.13;;;1.63;;
43994;SDS011;51687;52.160;5.298;2022-10-16T08:56:14;6.55;;;2.13;;
43994;SDS011;51687;52.160;5.298;2022-10-16T08:58:41;7.40;;;1.77;;
43994;SDS011;51687;52.160;5.298;2022-10-16T09:01:18;8.82;;;1.98;;
43994;SDS011;51687;52.160;5.298;2022-10-16T09:04:05;15.05;;;2.38;;
43994;SDS011;51687;52.160;5.298;2022-10-16T09:06:43;4.90;;;1.90;;
43994;SDS011;51687;52.160;5.298;2022-10-16T09:12:30;6.50;;;2.03;;
43994;SDS011;51687;52.160;5.298;2022-10-16T09:18:01;8.52;;;2.33;;
43994;SDS011;51687;52.160;5.298;2022-10-16T09:20:58;5.10;;;1.65;;
43994;SDS011;51687;52.160;5.298;2022-10-16T09:23:37;7.55;;;1.88;;
43994;SDS011;51687;52.160;5.298;2022-10-16T09:26:05;6.93;;;1.70;;
43994;SDS011;51687;52.160;5.298;2022-10-16T09:28:35;11.70;;;2.45;;
43994;SDS011;51687;52.160;5.298;2022-10-16T09:31:02;11.52;;;2.20;;
43994;SDS011;51687;52.160;5.298;2022-10-16T09:33:30;6.30;;;1.95;;
43994;SDS011;51687;52.160;5.298;2022-10-16T09:36:02;7.93;;;1.80;;
43994;SDS011;51687;52.160;5.298;2022-10-16T09:38:32;8.15;;;1.77;;
43994;SDS011;51687;52.160;5.298;2022-10-16T09:41:01;9.90;;;2.03;;
43994;SDS011;51687;52.160;5.298;2022-10-16T09:49:04;5.93;;;2.10;;
43994;SDS011;51687;52.160;5.298;2022-10-16T09:51:44;11.52;;;1.98;;
43994;SDS011;51687;52.160;5.298;2022-10-16T09:56:43;10.00;;;2.53;;
43994;SDS011;51687;52.160;5.298;2022-10-16T09:59:13;6.25;;;1.88;;
43994;SDS011;51687;52.160;5.298;2022-10-16T10:01:52;8.67;;;2.23;;
43994;SDS011;51687;52.160;5.298;2022-10-16T10:04:22;9.45;;;1.80;;
43994;SDS011;51687;52.160;5.298;2022-10-16T10:06:53;9.40;;;2.17;;
43994;SDS011;51687;52.160;5.298;2022-10-16T10:11:53;13.40;;;2.97;;
43994;SDS011;51687;52.160;5.298;2022-10-16T10:14:30;6.68;;;1.67;;
43994;SDS011;51687;52.160;5.298;2022-10-16T10:19:42;7.10;;;1.88;;
43994;SDS011;51687;52.160;5.298;2022-10-16T10:22:17;7.53;;;2.17;;
43994;SDS011;51687;52.160;5.298;2022-10-16T10:30:27;14.75;;;2.63;;
43994;SDS011;51687;52.160;5.298;2022-10-16T10:35:31;9.82;;;2.90;;
43994;SDS011;51687;52.160;5.298;2022-10-16T10:38:38;10.25;;;2.28;;
43994;SDS011;51687;52.160;5.298;2022-10-16T10:41:34;6.22;;;2.00;;
43994;SDS011;51687;52.160;5.298;2022-10-16T10:50:00;12.52;;;1.90;;
43994;SDS011;51687;52.160;5.298;2022-10-16T10:52:58;16.73;;;2.63;;
43994;SDS011;51687;52.160;5.298;2022-10-16T11:01:09;10.70;;;2.78;;
43994;SDS011;51687;52.160;5.298;2022-10-16T11:09:23;10.15;;;2.03;;
43994;SDS011;51687;52.160;5.298;2022-10-16T11:11:58;9.30;;;2.15;;
43994;SDS011;51687;52.160;5.298;2022-10-16T11:14:30;10.32;;;2.10;;
43994;SDS011;51687;52.160;5.298;2022-10-16T11:22:38;12.80;;;2.08;;
43994;SDS011;51687;52.160;5.298;2022-10-16T11:28:06;15.73;;;3.10;;
43994;SDS011;51687;52.160;5.298;2022-10-16T11:30:47;7.47;;;1.60;;
43994;SDS011;51687;52.160;5.298;2022-10-16T11:36:40;9.40;;;2.65;;
43994;SDS011;51687;52.160;5.298;2022-10-16T11:41:42;7.95;;;1.83;;
43994;SDS011;51687;52.160;5.298;2022-10-16T11:44:41;9.32;;;1.88;;
43994;SDS011;51687;52.160;5.298;2022-10-16T11:53:13;6.75;;;1.60;;
43994;SDS011;51687;52.160;5.298;2022-10-16T11:55:49;8.63;;;1.77;;
43994;SDS011;51687;52.160;5.298;2022-10-16T12:03:31;9.45;;;1.63;;
43994;SDS011;51687;52.160;5.298;2022-10-16T12:08:45;8.80;;;1.60;;
43994;SDS011;51687;52.160;5.298;2022-10-16T12:11:22;6.35;;;1.90;;
43994;SDS011;51687;52.160;5.298;2022-10-16T12:14:04;5.63;;;1.88;;
43994;SDS011;51687;52.160;5.298;2022-10-16T12:16:31;7.15;;;1.35;;
43994;SDS011;51687;52.160;5.298;2022-10-16T12:19:14;7.15;;;1.90;;
43994;SDS011;51687;52.160;5.298;2022-10-16T12:21:43;11.07;;;1.58;;
43994;SDS011;51687;52.160;5.298;2022-10-16T12:26:56;9.50;;;1.80;;
43994;SDS011;51687;52.160;5.298;2022-10-16T12:32:02;4.45;;;1.30;;
43994;SDS011;51687;52.160;5.298;2022-10-16T12:37:19;9.32;;;1.77;;
43994;SDS011;51687;52.160;5.298;2022-10-16T12:39:50;9.45;;;1.90;;
43994;SDS011;51687;52.160;5.298;2022-10-16T12:44:53;6.30;;;1.77;;
43994;SDS011;51687;52.160;5.298;2022-10-16T12:47:35;6.78;;;1.67;;
43994;SDS011;51687;52.160;5.298;2022-10-16T12:50:22;6.45;;;1.55;;
43994;SDS011;51687;52.160;5.298;2022-10-16T12:52:49;7.68;;;1.80;;
43994;SDS011;51687;52.160;5.298;2022-10-16T12:55:16;7.03;;;1.83;;
43994;SDS011;51687;52.160;5.298;2022-10-16T13:22:24;7.30;;;1.70;;
43994;SDS011;51687;52.160;5.298;2022-10-16T13:24:58;7.75;;;1.77;;
43994;SDS011;51687;52.160;5.298;2022-10-16T13:30:17;6.13;;;2.08;;
43994;SDS011;51687;52.160;5.298;2022-10-16T13:32:47;9.20;;;1.73;;
43994;SDS011;51687;52.160;5.298;2022-10-16T13:35:20;10.10;;;1.67;;
43994;SDS011;51687;52.160;5.298;2022-10-16T13:37:50;8.45;;;1.48;;
43994;SDS011;51687;52.160;5.298;2022-10-16T13:40:23;11.32;;;2.08;;
43994;SDS011;51687;52.160;5.298;2022-10-16T13:42:50;12.68;;;2.08;;
43994;SDS011;51687;52.160;5.298;2022-10-16T13:47:49;7.47;;;2.28;;
43994;SDS011;51687;52.160;5.298;2022-10-16T13:50:16;8.20;;;1.48;;
43994;SDS011;51687;52.160;5.298;2022-10-16T13:52:44;7.22;;;1.50;;
43994;SDS011;51687;52.160;5.298;2022-10-16T13:55:12;8.88;;;2.20;;
43994;SDS011;51687;52.160;5.298;2022-10-16T13:57:40;9.27;;;1.83;;
43994;SDS011;51687;52.160;5.298;2022-10-16T14:00:18;8.07;;;2.13;;
43994;SDS011;51687;52.160;5.298;2022-10-16T14:02:45;5.70;;;1.30;;
43994;SDS011;51687;52.160;5.298;2022-10-16T14:05:19;9.95;;;2.15;;
43994;SDS011;51687;52.160;5.298;2022-10-16T14:07:47;7.25;;;1.77;;
43994;SDS011;51687;52.160;5.298;2022-10-16T14:10:27;6.43;;;1.40;;
43994;SDS011;51687;52.160;5.298;2022-10-16T14:13:00;9.00;;;2.15;;
43994;SDS011;51687;52.160;5.298;2022-10-16T14:15:30;10.77;;;2.17;;
43994;SDS011;51687;52.160;5.298;2022-10-16T14:17:58;12.00;;;1.67;;
43994;SDS011;51687;52.160;5.298;2022-10-16T14:20:26;7.50;;;2.00;;
43994;SDS011;51687;52.160;5.298;2022-10-16T14:23:39;7.65;;;1.85;;
43994;SDS011;51687;52.160;5.298;2022-10-16T14:25:45;7.72;;;1.67;;
43994;SDS011;51687;52.160;5.298;2022-10-16T14:30:48;9.73;;;1.55;;
43994;SDS011;51687;52.160;5.298;2022-10-16T14:36:03;9.93;;;1.98;;
43994;SDS011;51687;52.160;5.298;2022-10-16T14:38:48;9.40;;;2.03;;
43994;SDS011;51687;52.160;5.298;2022-10-16T14:41:22;8.18;;;2.10;;
43994;SDS011;51687;52.160;5.298;2022-10-16T14:43:53;8.73;;;1.60;;
43994;SDS011;51687;52.160;5.298;2022-10-16T14:46:22;7.55;;;2.08;;
43994;SDS011;51687;52.160;5.298;2022-10-16T14:48:59;11.60;;;2.15;;
43994;SDS011;51687;52.160;5.298;2022-10-16T14:51:29;6.55;;;1.80;;
43994;SDS011;51687;52.160;5.298;2022-10-16T14:53:56;10.15;;;1.98;;
43994;SDS011;51687;52.160;5.298;2022-10-16T14:56:27;5.53;;;1.50;;
43994;SDS011;51687;52.160;5.298;2022-10-16T14:58:59;9.38;;;1.98;;
43994;SDS011;51687;52.160;5.298;2022-10-16T15:03:53;7.10;;;1.85;;
43994;SDS011;51687;52.160;5.298;2022-10-16T15:06:21;9.07;;;2.43;;
43994;SDS011;51687;52.160;5.298;2022-10-16T15:08:48;6.63;;;2.25;;
43994;SDS011;51687;52.160;5.298;2022-10-16T15:11:18;7.55;;;2.60;;
43994;SDS011;51687;52.160;5.298;2022-10-16T15:13:46;8.85;;;2.45;;
43994;SDS011;51687;52.160;5.298;2022-10-16T15:16:14;11.15;;;1.95;;
43994;SDS011;51687;52.160;5.298;2022-10-16T15:18:42;9.90;;;2.28;;
43994;SDS011;51687;52.160;5.298;2022-10-16T15:21:26;8.60;;;1.92;;
43994;SDS011;51687;52.160;5.298;2022-10-16T15:23:56;8.88;;;1.70;;
43994;SDS011;51687;52.160;5.298;2022-10-16T15:26:24;7.03;;;2.28;;
43994;SDS011;51687;52.160;5.298;2022-10-16T15:28:52;9.50;;;5.38;;
43994;SDS011;51687;52.160;5.298;2022-10-16T15:31:19;9.20;;;3.20;;
43994;SDS011;51687;52.160;5.298;2022-10-16T15:33:49;8.02;;;2.30;;
43994;SDS011;51687;52.160;5.298;2022-10-16T15:36:29;6.20;;;2.03;;
43994;SDS011;51687;52.160;5.298;2022-10-16T15:38:59;12.07;;;2.10;;
43994;SDS011;51687;52.160;5.298;2022-10-16T15:41:26;6.82;;;2.25;;
43994;SDS011;51687;52.160;5.298;2022-10-16T15:43:54;6.30;;;2.17;;
43994;SDS011;51687;52.160;5.298;2022-10-16T15:46:21;9.25;;;2.70;;
43994;SDS011;51687;52.160;5.298;2022-10-16T15:48:50;11.30;;;3.55;;
43994;SDS011;51687;52.160;5.298;2022-10-16T15:51:17;16.40;;;4.87;;
43994;SDS011;51687;52.160;5.298;2022-10-16T15:53:44;9.88;;;3.67;;
43994;SDS011;51687;52.160;5.298;2022-10-16T15:56:12;13.27;;;4.87;;
43994;SDS011;51687;52.160;5.298;2022-10-16T15:58:40;7.45;;;3.40;;
43994;SDS011;51687;52.160;5.298;2022-10-16T16:01:06;9.18;;;4.05;;
43994;SDS011;51687;52.160;5.298;2022-10-16T16:03:36;10.90;;;4.43;;
43994;SDS011;51687;52.160;5.298;2022-10-16T16:06:07;9.68;;;5.13;;
43994;SDS011;51687;52.160;5.298;2022-10-16T16:08:35;15.98;;;5.28;;
43994;SDS011;51687;52.160;5.298;2022-10-16T16:11:04;9.80;;;6.03;;
43994;SDS011;51687;52.160;5.298;2022-10-16T16:13:36;9.93;;;7.15;;
43994;SDS011;51687;52.160;5.298;2022-10-16T16:16:06;12.57;;;8.90;;
43994;SDS011;51687;52.160;5.298;2022-10-16T16:18:34;13.35;;;8.13;;
43994;SDS011;51687;52.160;5.298;2022-10-16T16:21:02;11.82;;;7.47;;
43994;SDS011;51687;52.160;5.298;2022-10-16T16:23:29;29.60;;;21.70;;
43994;SDS011;51687;52.160;5.298;2022-10-16T16:26:04;16.92;;;13.82;;
43994;SDS011;51687;52.160;5.298;2022-10-16T16:28:33;20.90;;;18.63;;
43994;SDS011;51687;52.160;5.298;2022-10-16T16:31:01;18.52;;;12.35;;
43994;SDS011;51687;52.160;5.298;2022-10-16T16:33:28;14.48;;;10.05;;
43994;SDS011;51687;52.160;5.298;2022-10-16T16:38:31;13.05;;;10.02;;
43994;SDS011;51687;52.160;5.298;2022-10-16T16:40:58;15.32;;;11.32;;
43994;SDS011;51687;52.160;5.298;2022-10-16T16:43:25;21.30;;;9.75;;
43994;SDS011;51687;52.160;5.298;2022-10-16T16:45:53;15.68;;;8.27;;
43994;SDS011;51687;52.160;5.298;2022-10-16T16:48:20;15.88;;;7.72;;
43994;SDS011;51687;52.160;5.298;2022-10-16T16:50:48;15.38;;;10.10;;
43994;SDS011;51687;52.160;5.298;2022-10-16T16:53:14;14.63;;;6.53;;
43994;SDS011;51687;52.160;5.298;2022-10-16T16:55:41;12.20;;;8.15;;
43994;SDS011;51687;52.160;5.298;2022-10-16T16:58:08;13.40;;;5.63;;
43994;SDS011;51687;52.160;5.298;2022-10-16T17:00:35;10.85;;;5.60;;
43994;SDS011;51687;52.160;5.298;2022-10-16T17:03:03;12.73;;;5.70;;
43994;SDS011;51687;52.160;5.298;2022-10-16T17:05:29;8.48;;;5.38;;
43994;SDS011;51687;52.160;5.298;2022-10-16T17:07:56;13.90;;;6.50;;
43994;SDS011;51687;52.160;5.298;2022-10-16T17:10:23;14.73;;;6.72;;
43994;SDS011;51687;52.160;5.298;2022-10-16T17:12:49;11.23;;;7.07;;
43994;SDS011;51687;52.160;5.298;2022-10-16T17:15:16;10.60;;;6.40;;
43994;SDS011;51687;52.160;5.298;2022-10-16T17:17:43;14.77;;;7.15;;
43994;SDS011;51687;52.160;5.298;2022-10-16T17:20:10;12.18;;;6.00;;
43994;SDS011;51687;52.160;5.298;2022-10-16T17:22:37;21.35;;;7.82;;
43994;SDS011;51687;52.160;5.298;2022-10-16T17:25:04;16.23;;;10.82;;
43994;SDS011;51687;52.160;5.298;2022-10-16T17:27:33;15.93;;;9.13;;
43994;SDS011;51687;52.160;5.298;2022-10-16T17:32:29;16.67;;;12.07;;
43994;SDS011;51687;52.160;5.298;2022-10-16T17:34:56;21.98;;;11.07;;
43994;SDS011;51687;52.160;5.298;2022-10-16T17:37:22;17.35;;;11.02;;
43994;SDS011;51687;52.160;5.298;2022-10-16T17:39:49;18.83;;;11.90;;